sensor_id;sensor_type;location;lat;lon;timestamp;P1;durP1;ratioP1;P2;durP2;ratioP2
22829;SDS011;11581;51.250;6.778;2023-09-07T00:01:32;4.60;;;2.92;;
22829;SDS011;11581;51.250;6.778;2023-09-07T00:03:59;6.85;;;2.53;;
22829;SDS011;11581;51.250;6.778;2023-09-07T00:06:26;5.18;;;2.60;;
22829;SDS011;11581;51.250;6.778;2023-09-07T00:08:52;4.25;;;2.38;;
22829;SDS011;11581;51.250;6.778;2023-09-07T00:11:19;4.72;;;2.60;;
22829;SDS011;11581;51.250;6.778;2023-09-07T00:13:46;4.05;;;2.22;;
22829;SDS011;11581;51.250;6.778;2023-09-07T00:16:14;6.25;;;2.22;;
22829;SDS011;11581;51.250;6.778;2023-09-07T00:18:41;4.35;;;2.60;;
22829;SDS011;11581;51.250;6.778;2023-09-07T00:21:08;5.70;;;2.45;;
22829;SDS011;11581;51.250;6.778;2023-09-07T00:23:35;6.45;;;2.38;;
22829;SDS011;11581;51.250;6.778;2023-09-07T00:26:02;5.07;;;2.35;;
22829;SDS011;11581;51.250;6.778;2023-09-07T00:28:28;4.30;;;2.60;;
22829;SDS011;11581;51.250;6.778;2023-09-07T00:30:55;6.95;;;2.20;;
22829;SDS011;11581;51.250;6.778;2023-09-07T00:33:23;6.28;;;2.53;;
22829;SDS011;11581;51.250;6.778;2023-09-07T00:35:50;4.30;;;2.65;;
22829;SDS011;11581;51.250;6.778;2023-09-07T00:38:17;6.55;;;2.70;;
22829;SDS011;11581;51.250;6.778;2023-09-07T00:40:43;3.75;;;2.42;;
22829;SDS011;11581;51.250;6.778;2023-09-07T00:43:11;5.18;;;2.60;;
22829;SDS011;11581;51.250;6.778;2023-09-07T00:45:38;7.03;;;3.00;;
22829;SDS011;11581;51.250;6.778;2023-09-07T00:48:05;5.75;;;2.42;;
22829;SDS011;11581;51.250;6.778;2023-09-07T00:50:34;5.10;;;2.38;;
22829;SDS011;11581;51.250;6.778;2023-09-07T00:53:01;4.65;;;2.50;;
22829;SDS011;11581;51.250;6.778;2023-09-07T00:55:32;4.22;;;2.75;;
22829;SDS011;11581;51.250;6.778;2023-09-07T00:58:00;5.25;;;2.25;;
22829;SDS011;11581;51.250;6.778;2023-09-07T01:00:28;3.80;;;2.17;;
22829;SDS011;11581;51.250;6.778;2023-09-07T01:02:55;3.72;;;2.28;;
22829;SDS011;11581;51.250;6.778;2023-09-07T01:05:24;4.80;;;2.25;;
22829;SDS011;11581;51.250;6.778;2023-09-07T01:07:59;5.53;;;2.15;;
22829;SDS011;11581;51.250;6.778;2023-09-07T01:10:36;5.55;;;2.20;;
22829;SDS011;11581;51.250;6.778;2023-09-07T01:13:03;4.05;;;2.25;;
22829;SDS011;11581;51.250;6.778;2023-09-07T01:15:30;5.50;;;2.42;;
22829;SDS011;11581;51.250;6.778;2023-09-07T01:17:57;4.03;;;2.20;;
22829;SDS011;11581;51.250;6.778;2023-09-07T01:20:25;9.80;;;2.40;;
22829;SDS011;11581;51.250;6.778;2023-09-07T01:22:54;6.65;;;2.33;;
22829;SDS011;11581;51.250;6.778;2023-09-07T01:27:49;5.18;;;2.50;;
22829;SDS011;11581;51.250;6.778;2023-09-07T01:30:18;5.82;;;2.30;;
22829;SDS011;11581;51.250;6.778;2023-09-07T01:32:45;5.10;;;2.25;;
22829;SDS011;11581;51.250;6.778;2023-09-07T01:35:13;3.33;;;2.03;;
22829;SDS011;11581;51.250;6.778;2023-09-07T01:37:43;6.30;;;2.10;;
22829;SDS011;11581;51.250;6.778;2023-09-07T01:40:11;3.67;;;2.20;;
22829;SDS011;11581;51.250;6.778;2023-09-07T01:42:38;4.28;;;2.05;;
22829;SDS011;11581;51.250;6.778;2023-09-07T01:45:05;3.85;;;2.45;;
22829;SDS011;11581;51.250;6.778;2023-09-07T01:47:34;4.80;;;2.75;;
22829;SDS011;11581;51.250;6.778;2023-09-07T01:50:02;3.65;;;2.20;;
22829;SDS011;11581;51.250;6.778;2023-09-07T01:52:29;6.05;;;2.70;;
22829;SDS011;11581;51.250;6.778;2023-09-07T01:54:57;4.65;;;2.25;;
22829;SDS011;11581;51.250;6.778;2023-09-07T01:57:25;6.50;;;2.53;;
22829;SDS011;11581;51.250;6.778;2023-09-07T01:59:52;3.88;;;2.50;;
22829;SDS011;11581;51.250;6.778;2023-09-07T02:02:19;5.78;;;2.40;;
22829;SDS011;11581;51.250;6.778;2023-09-07T02:04:46;4.80;;;2.40;;
22829;SDS011;11581;51.250;6.778;2023-09-07T02:09:47;4.45;;;2.10;;
22829;SDS011;11581;51.250;6.778;2023-09-07T02:12:14;4.97;;;2.15;;
22829;SDS011;11581;51.250;6.778;2023-09-07T02:14:42;8.00;;;2.30;;
22829;SDS011;11581;51.250;6.778;2023-09-07T02:17:09;5.93;;;2.13;;
22829;SDS011;11581;51.250;6.778;2023-09-07T02:19:39;3.90;;;2.38;;
22829;SDS011;11581;51.250;6.778;2023-09-07T02:22:06;4.38;;;2.40;;
22829;SDS011;11581;51.250;6.778;2023-09-07T02:24:33;7.95;;;2.65;;
22829;SDS011;11581;51.250;6.778;2023-09-07T02:27:00;4.82;;;2.20;;
22829;SDS011;11581;51.250;6.778;2023-09-07T02:29:27;5.35;;;2.50;;
22829;SDS011;11581;51.250;6.778;2023-09-07T02:31:55;3.60;;;2.30;;
22829;SDS011;11581;51.250;6.778;2023-09-07T02:34:23;4.25;;;2.50;;
22829;SDS011;11581;51.250;6.778;2023-09-07T02:36:49;4.47;;;2.15;;
22829;SDS011;11581;51.250;6.778;2023-09-07T02:39:18;5.22;;;2.40;;
22829;SDS011;11581;51.250;6.778;2023-09-07T02:41:47;4.72;;;2.20;;
22829;SDS011;11581;51.250;6.778;2023-09-07T02:44:15;5.95;;;2.22;;
22829;SDS011;11581;51.250;6.778;2023-09-07T02:46:42;4.28;;;2.35;;
22829;SDS011;11581;51.250;6.778;2023-09-07T02:49:10;4.63;;;2.25;;
22829;SDS011;11581;51.250;6.778;2023-09-07T02:51:37;4.55;;;2.40;;
22829;SDS011;11581;51.250;6.778;2023-09-07T02:54:04;5.30;;;2.60;;
22829;SDS011;11581;51.250;6.778;2023-09-07T02:56:32;3.95;;;2.40;;
22829;SDS011;11581;51.250;6.778;2023-09-07T02:58:59;4.07;;;2.20;;
22829;SDS011;11581;51.250;6.778;2023-09-07T03:01:26;6.53;;;2.75;;
22829;SDS011;11581;51.250;6.778;2023-09-07T03:03:54;6.18;;;2.45;;
22829;SDS011;11581;51.250;6.778;2023-09-07T03:06:26;4.45;;;2.22;;
22829;SDS011;11581;51.250;6.778;2023-09-07T03:08:52;5.45;;;2.30;;
22829;SDS011;11581;51.250;6.778;2023-09-07T03:11:20;4.20;;;2.30;;
22829;SDS011;11581;51.250;6.778;2023-09-07T03:13:48;4.40;;;2.20;;
22829;SDS011;11581;51.250;6.778;2023-09-07T03:16:15;3.78;;;2.25;;
22829;SDS011;11581;51.250;6.778;2023-09-07T03:18:42;5.53;;;2.03;;
22829;SDS011;11581;51.250;6.778;2023-09-07T03:21:09;4.15;;;2.65;;
22829;SDS011;11581;51.250;6.778;2023-09-07T03:23:38;4.45;;;2.10;;
22829;SDS011;11581;51.250;6.778;2023-09-07T03:26:10;5.35;;;2.63;;
22829;SDS011;11581;51.250;6.778;2023-09-07T03:28:37;9.27;;;2.45;;
22829;SDS011;11581;51.250;6.778;2023-09-07T03:31:04;4.53;;;2.20;;
22829;SDS011;11581;51.250;6.778;2023-09-07T03:33:32;3.25;;;1.95;;
22829;SDS011;11581;51.250;6.778;2023-09-07T03:35:58;5.00;;;2.28;;
22829;SDS011;11581;51.250;6.778;2023-09-07T03:38:25;5.78;;;2.25;;
22829;SDS011;11581;51.250;6.778;2023-09-07T03:40:56;5.15;;;2.03;;
22829;SDS011;11581;51.250;6.778;2023-09-07T03:43:23;4.07;;;2.08;;
22829;SDS011;11581;51.250;6.778;2023-09-07T03:45:50;3.53;;;2.00;;
22829;SDS011;11581;51.250;6.778;2023-09-07T03:48:17;5.65;;;2.17;;
22829;SDS011;11581;51.250;6.778;2023-09-07T03:50:44;3.92;;;2.15;;
22829;SDS011;11581;51.250;6.778;2023-09-07T03:53:11;3.42;;;1.92;;
22829;SDS011;11581;51.250;6.778;2023-09-07T03:55:41;6.53;;;2.50;;
22829;SDS011;11581;51.250;6.778;2023-09-07T03:58:12;3.92;;;2.15;;
22829;SDS011;11581;51.250;6.778;2023-09-07T04:00:40;3.53;;;2.33;;
22829;SDS011;11581;51.250;6.778;2023-09-07T04:03:07;3.13;;;2.20;;
22829;SDS011;11581;51.250;6.778;2023-09-07T04:05:36;3.38;;;1.88;;
22829;SDS011;11581;51.250;6.778;2023-09-07T04:08:03;5.70;;;2.63;;
22829;SDS011;11581;51.250;6.778;2023-09-07T04:10:30;4.20;;;2.17;;
22829;SDS011;11581;51.250;6.778;2023-09-07T04:12:58;4.22;;;2.15;;
22829;SDS011;11581;51.250;6.778;2023-09-07T04:15:26;3.17;;;2.08;;
22829;SDS011;11581;51.250;6.778;2023-09-07T04:17:53;4.22;;;2.13;;
22829;SDS011;11581;51.250;6.778;2023-09-07T04:20:21;4.25;;;2.30;;
22829;SDS011;11581;51.250;6.778;2023-09-07T04:22:49;4.20;;;2.20;;
22829;SDS011;11581;51.250;6.778;2023-09-07T04:25:17;4.82;;;2.28;;
22829;SDS011;11581;51.250;6.778;2023-09-07T04:27:44;4.22;;;2.30;;
22829;SDS011;11581;51.250;6.778;2023-09-07T04:30:11;4.70;;;2.22;;
22829;SDS011;11581;51.250;6.778;2023-09-07T04:32:39;4.55;;;2.63;;
22829;SDS011;11581;51.250;6.778;2023-09-07T04:35:07;3.58;;;2.08;;
22829;SDS011;11581;51.250;6.778;2023-09-07T04:37:35;5.75;;;2.28;;
22829;SDS011;11581;51.250;6.778;2023-09-07T04:40:02;7.00;;;2.47;;
22829;SDS011;11581;51.250;6.778;2023-09-07T04:42:29;3.63;;;2.33;;
22829;SDS011;11581;51.250;6.778;2023-09-07T04:44:57;4.68;;;2.05;;
22829;SDS011;11581;51.250;6.778;2023-09-07T04:47:24;3.83;;;2.13;;
22829;SDS011;11581;51.250;6.778;2023-09-07T04:49:53;6.15;;;2.67;;
22829;SDS011;11581;51.250;6.778;2023-09-07T04:52:21;7.20;;;2.75;;
22829;SDS011;11581;51.250;6.778;2023-09-07T04:54:50;4.47;;;2.40;;
22829;SDS011;11581;51.250;6.778;2023-09-07T04:57:18;4.53;;;2.60;;
22829;SDS011;11581;51.250;6.778;2023-09-07T04:59:46;5.22;;;2.55;;
22829;SDS011;11581;51.250;6.778;2023-09-07T05:02:13;4.20;;;2.22;;
22829;SDS011;11581;51.250;6.778;2023-09-07T05:04:40;3.85;;;2.42;;
22829;SDS011;11581;51.250;6.778;2023-09-07T05:07:08;6.15;;;2.55;;
22829;SDS011;11581;51.250;6.778;2023-09-07T05:09:35;4.03;;;2.45;;
22829;SDS011;11581;51.250;6.778;2023-09-07T05:12:02;4.20;;;2.58;;
22829;SDS011;11581;51.250;6.778;2023-09-07T05:14:29;4.72;;;2.38;;
22829;SDS011;11581;51.250;6.778;2023-09-07T05:16:56;7.88;;;3.15;;
22829;SDS011;11581;51.250;6.778;2023-09-07T05:19:23;7.78;;;3.20;;
22829;SDS011;11581;51.250;6.778;2023-09-07T05:21:51;6.97;;;2.97;;
22829;SDS011;11581;51.250;6.778;2023-09-07T05:24:19;9.48;;;2.92;;
22829;SDS011;11581;51.250;6.778;2023-09-07T05:26:46;10.18;;;3.53;;
22829;SDS011;11581;51.250;6.778;2023-09-07T05:29:13;7.00;;;2.90;;
22829;SDS011;11581;51.250;6.778;2023-09-07T05:31:42;7.25;;;2.92;;
22829;SDS011;11581;51.250;6.778;2023-09-07T05:34:08;5.43;;;3.00;;
22829;SDS011;11581;51.250;6.778;2023-09-07T05:36:35;4.88;;;2.88;;
22829;SDS011;11581;51.250;6.778;2023-09-07T05:39:02;5.85;;;2.30;;
22829;SDS011;11581;51.250;6.778;2023-09-07T05:41:31;3.63;;;2.40;;
22829;SDS011;11581;51.250;6.778;2023-09-07T05:43:58;11.00;;;3.08;;
22829;SDS011;11581;51.250;6.778;2023-09-07T05:46:26;5.88;;;2.20;;
22829;SDS011;11581;51.250;6.778;2023-09-07T05:48:52;11.23;;;3.03;;
22829;SDS011;11581;51.250;6.778;2023-09-07T05:51:21;12.60;;;3.00;;
22829;SDS011;11581;51.250;6.778;2023-09-07T05:53:48;14.40;;;2.83;;
22829;SDS011;11581;51.250;6.778;2023-09-07T05:56:15;9.20;;;3.00;;
22829;SDS011;11581;51.250;6.778;2023-09-07T05:58:44;8.40;;;2.80;;
22829;SDS011;11581;51.250;6.778;2023-09-07T06:01:10;4.68;;;2.50;;
22829;SDS011;11581;51.250;6.778;2023-09-07T06:03:38;8.80;;;3.20;;
22829;SDS011;11581;51.250;6.778;2023-09-07T06:06:06;7.72;;;2.78;;
22829;SDS011;11581;51.250;6.778;2023-09-07T06:08:33;9.60;;;3.00;;
22829;SDS011;11581;51.250;6.778;2023-09-07T06:11:00;8.15;;;2.80;;
22829;SDS011;11581;51.250;6.778;2023-09-07T06:13:27;4.68;;;2.40;;
22829;SDS011;11581;51.250;6.778;2023-09-07T06:15:55;5.35;;;2.55;;
22829;SDS011;11581;51.250;6.778;2023-09-07T06:18:22;4.72;;;2.58;;
22829;SDS011;11581;51.250;6.778;2023-09-07T06:20:49;6.18;;;2.70;;
22829;SDS011;11581;51.250;6.778;2023-09-07T06:23:17;4.22;;;2.50;;
22829;SDS011;11581;51.250;6.778;2023-09-07T06:25:43;4.63;;;2.22;;
22829;SDS011;11581;51.250;6.778;2023-09-07T06:28:10;4.07;;;2.33;;
22829;SDS011;11581;51.250;6.778;2023-09-07T06:30:38;5.55;;;2.58;;
22829;SDS011;11581;51.250;6.778;2023-09-07T06:33:06;4.60;;;2.65;;
22829;SDS011;11581;51.250;6.778;2023-09-07T06:35:33;4.88;;;2.65;;
22829;SDS011;11581;51.250;6.778;2023-09-07T06:38:00;5.43;;;2.42;;
22829;SDS011;11581;51.250;6.778;2023-09-07T06:40:27;4.68;;;2.38;;
22829;SDS011;11581;51.250;6.778;2023-09-07T06:42:57;4.78;;;2.10;;
22829;SDS011;11581;51.250;6.778;2023-09-07T06:45:25;5.70;;;2.80;;
22829;SDS011;11581;51.250;6.778;2023-09-07T06:47:53;4.60;;;2.40;;
22829;SDS011;11581;51.250;6.778;2023-09-07T06:50:24;5.38;;;2.80;;
22829;SDS011;11581;51.250;6.778;2023-09-07T06:52:51;6.40;;;2.60;;
22829;SDS011;11581;51.250;6.778;2023-09-07T06:55:19;6.95;;;2.30;;
22829;SDS011;11581;51.250;6.778;2023-09-07T06:57:46;4.30;;;2.30;;
22829;SDS011;11581;51.250;6.778;2023-09-07T07:00:13;4.43;;;2.50;;
22829;SDS011;11581;51.250;6.778;2023-09-07T07:02:41;6.80;;;2.75;;
22829;SDS011;11581;51.250;6.778;2023-09-07T07:05:09;5.30;;;2.60;;
22829;SDS011;11581;51.250;6.778;2023-09-07T07:07:38;4.75;;;2.58;;
22829;SDS011;11581;51.250;6.778;2023-09-07T07:10:06;8.63;;;2.53;;
22829;SDS011;11581;51.250;6.778;2023-09-07T07:12:34;10.95;;;2.45;;
22829;SDS011;11581;51.250;6.778;2023-09-07T07:15:04;5.22;;;2.45;;
22829;SDS011;11581;51.250;6.778;2023-09-07T07:17:32;10.43;;;3.90;;
22829;SDS011;11581;51.250;6.778;2023-09-07T07:19:59;6.32;;;2.60;;
22829;SDS011;11581;51.250;6.778;2023-09-07T07:22:26;5.32;;;2.45;;
22829;SDS011;11581;51.250;6.778;2023-09-07T07:24:57;9.15;;;2.38;;
22829;SDS011;11581;51.250;6.778;2023-09-07T07:27:30;6.43;;;2.28;;
22829;SDS011;11581;51.250;6.778;2023-09-07T07:29:58;5.93;;;2.08;;
22829;SDS011;11581;51.250;6.778;2023-09-07T07:32:25;9.00;;;2.13;;
22829;SDS011;11581;51.250;6.778;2023-09-07T07:34:51;5.32;;;2.25;;
22829;SDS011;11581;51.250;6.778;2023-09-07T07:37:19;6.80;;;2.15;;
22829;SDS011;11581;51.250;6.778;2023-09-07T07:39:46;3.67;;;1.90;;
22829;SDS011;11581;51.250;6.778;2023-09-07T07:42:15;5.93;;;2.33;;
22829;SDS011;11581;51.250;6.778;2023-09-07T07:44:44;3.00;;;1.45;;
22829;SDS011;11581;51.250;6.778;2023-09-07T07:47:11;10.68;;;2.17;;
22829;SDS011;11581;51.250;6.778;2023-09-07T07:49:39;3.85;;;1.85;;
22829;SDS011;11581;51.250;6.778;2023-09-07T07:52:06;3.35;;;1.75;;
22829;SDS011;11581;51.250;6.778;2023-09-07T07:54:34;5.18;;;1.85;;
22829;SDS011;11581;51.250;6.778;2023-09-07T07:57:02;3.20;;;1.58;;
22829;SDS011;11581;51.250;6.778;2023-09-07T07:59:33;2.45;;;1.65;;
22829;SDS011;11581;51.250;6.778;2023-09-07T08:02:00;3.05;;;2.00;;
22829;SDS011;11581;51.250;6.778;2023-09-07T08:04:28;4.20;;;1.55;;
22829;SDS011;11581;51.250;6.778;2023-09-07T08:06:57;2.15;;;1.70;;
22829;SDS011;11581;51.250;6.778;2023-09-07T08:09:30;5.80;;;1.88;;
22829;SDS011;11581;51.250;6.778;2023-09-07T08:11:57;3.17;;;1.40;;
22829;SDS011;11581;51.250;6.778;2023-09-07T08:14:25;5.03;;;2.10;;
22829;SDS011;11581;51.250;6.778;2023-09-07T08:16:54;2.60;;;1.35;;
22829;SDS011;11581;51.250;6.778;2023-09-07T08:19:21;4.03;;;1.48;;
22829;SDS011;11581;51.250;6.778;2023-09-07T08:21:48;3.35;;;1.80;;
22829;SDS011;11581;51.250;6.778;2023-09-07T08:24:15;3.35;;;1.90;;
22829;SDS011;11581;51.250;6.778;2023-09-07T08:26:43;4.03;;;1.70;;
22829;SDS011;11581;51.250;6.778;2023-09-07T08:29:11;2.40;;;1.58;;
22829;SDS011;11581;51.250;6.778;2023-09-07T08:31:37;3.60;;;1.70;;
22829;SDS011;11581;51.250;6.778;2023-09-07T08:34:06;2.63;;;1.67;;
22829;SDS011;11581;51.250;6.778;2023-09-07T08:36:36;2.25;;;1.73;;
22829;SDS011;11581;51.250;6.778;2023-09-07T08:39:04;6.75;;;1.83;;
22829;SDS011;11581;51.250;6.778;2023-09-07T08:41:36;2.60;;;1.40;;
22829;SDS011;11581;51.250;6.778;2023-09-07T08:46:35;2.00;;;1.20;;
22829;SDS011;11581;51.250;6.778;2023-09-07T08:49:03;4.15;;;1.73;;
22829;SDS011;11581;51.250;6.778;2023-09-07T08:51:32;4.05;;;1.45;;
22829;SDS011;11581;51.250;6.778;2023-09-07T08:54:01;3.45;;;1.50;;
22829;SDS011;11581;51.250;6.778;2023-09-07T08:56:29;3.60;;;1.80;;
22829;SDS011;11581;51.250;6.778;2023-09-07T08:58:56;2.30;;;1.42;;
22829;SDS011;11581;51.250;6.778;2023-09-07T09:01:22;4.90;;;1.40;;
22829;SDS011;11581;51.250;6.778;2023-09-07T09:03:50;2.95;;;1.73;;
22829;SDS011;11581;51.250;6.778;2023-09-07T09:06:19;6.57;;;2.35;;
22829;SDS011;11581;51.250;6.778;2023-09-07T09:08:48;3.15;;;1.80;;
22829;SDS011;11581;51.250;6.778;2023-09-07T09:11:16;4.45;;;1.77;;
22829;SDS011;11581;51.250;6.778;2023-09-07T09:13:43;2.17;;;1.60;;
22829;SDS011;11581;51.250;6.778;2023-09-07T09:16:11;3.40;;;1.70;;
22829;SDS011;11581;51.250;6.778;2023-09-07T09:18:46;2.95;;;1.70;;
22829;SDS011;11581;51.250;6.778;2023-09-07T09:21:14;2.90;;;1.52;;
22829;SDS011;11581;51.250;6.778;2023-09-07T09:23:41;5.53;;;1.90;;
22829;SDS011;11581;51.250;6.778;2023-09-07T09:26:09;4.10;;;1.98;;
22829;SDS011;11581;51.250;6.778;2023-09-07T09:28:38;7.72;;;2.10;;
22829;SDS011;11581;51.250;6.778;2023-09-07T09:31:05;10.75;;;3.10;;
22829;SDS011;11581;51.250;6.778;2023-09-07T09:33:38;5.90;;;2.53;;
22829;SDS011;11581;51.250;6.778;2023-09-07T09:36:05;7.72;;;2.88;;
22829;SDS011;11581;51.250;6.778;2023-09-07T09:38:33;4.30;;;2.25;;
22829;SDS011;11581;51.250;6.778;2023-09-07T09:41:01;3.78;;;1.88;;
22829;SDS011;11581;51.250;6.778;2023-09-07T09:43:31;8.50;;;3.80;;
22829;SDS011;11581;51.250;6.778;2023-09-07T09:45:58;4.93;;;2.03;;
22829;SDS011;11581;51.250;6.778;2023-09-07T09:48:27;3.35;;;1.85;;
22829;SDS011;11581;51.250;6.778;2023-09-07T09:50:54;3.53;;;1.80;;
22829;SDS011;11581;51.250;6.778;2023-09-07T09:53:22;1.85;;;1.27;;
22829;SDS011;11581;51.250;6.778;2023-09-07T09:55:51;6.70;;;1.88;;
22829;SDS011;11581;51.250;6.778;2023-09-07T09:58:19;8.80;;;2.38;;
22829;SDS011;11581;51.250;6.778;2023-09-07T10:00:47;1.88;;;1.38;;
22829;SDS011;11581;51.250;6.778;2023-09-07T10:03:18;2.90;;;1.73;;
22829;SDS011;11581;51.250;6.778;2023-09-07T10:05:51;2.97;;;1.50;;
22829;SDS011;11581;51.250;6.778;2023-09-07T10:08:19;7.53;;;1.92;;
22829;SDS011;11581;51.250;6.778;2023-09-07T10:10:48;2.50;;;1.75;;
22829;SDS011;11581;51.250;6.778;2023-09-07T10:13:28;3.80;;;1.60;;
22829;SDS011;11581;51.250;6.778;2023-09-07T10:16:01;2.25;;;1.65;;
22829;SDS011;11581;51.250;6.778;2023-09-07T10:18:33;4.60;;;1.50;;
22829;SDS011;11581;51.250;6.778;2023-09-07T10:21:01;2.58;;;1.75;;
22829;SDS011;11581;51.250;6.778;2023-09-07T10:23:35;2.03;;;1.50;;
22829;SDS011;11581;51.250;6.778;2023-09-07T10:26:04;6.43;;;1.83;;
22829;SDS011;11581;51.250;6.778;2023-09-07T10:28:31;2.42;;;1.58;;
22829;SDS011;11581;51.250;6.778;2023-09-07T10:31:02;3.78;;;1.38;;
22829;SDS011;11581;51.250;6.778;2023-09-07T10:33:30;4.60;;;2.08;;
22829;SDS011;11581;51.250;6.778;2023-09-07T10:35:57;1.73;;;1.30;;
22829;SDS011;11581;51.250;6.778;2023-09-07T10:38:25;7.07;;;1.90;;
22829;SDS011;11581;51.250;6.778;2023-09-07T10:40:55;4.68;;;2.85;;
22829;SDS011;11581;51.250;6.778;2023-09-07T10:43:26;4.85;;;1.92;;
22829;SDS011;11581;51.250;6.778;2023-09-07T10:45:53;1.88;;;1.40;;
22829;SDS011;11581;51.250;6.778;2023-09-07T10:48:23;4.13;;;2.33;;
22829;SDS011;11581;51.250;6.778;2023-09-07T10:50:51;4.53;;;2.58;;
22829;SDS011;11581;51.250;6.778;2023-09-07T10:53:24;3.22;;;1.80;;
22829;SDS011;11581;51.250;6.778;2023-09-07T10:55:53;3.40;;;2.17;;
22829;SDS011;11581;51.250;6.778;2023-09-07T10:58:25;3.63;;;1.60;;
22829;SDS011;11581;51.250;6.778;2023-09-07T11:00:53;6.18;;;1.98;;
22829;SDS011;11581;51.250;6.778;2023-09-07T11:03:20;4.00;;;2.60;;
22829;SDS011;11581;51.250;6.778;2023-09-07T11:05:49;5.85;;;2.83;;
22829;SDS011;11581;51.250;6.778;2023-09-07T11:08:22;8.52;;;2.80;;
22829;SDS011;11581;51.250;6.778;2023-09-07T11:10:49;4.00;;;1.65;;
22829;SDS011;11581;51.250;6.778;2023-09-07T11:13:17;6.70;;;2.65;;
22829;SDS011;11581;51.250;6.778;2023-09-07T11:15:44;2.72;;;1.73;;
22829;SDS011;11581;51.250;6.778;2023-09-07T11:18:11;3.97;;;1.45;;
22829;SDS011;11581;51.250;6.778;2023-09-07T11:28:33;4.00;;;1.90;;
22829;SDS011;11581;51.250;6.778;2023-09-07T11:31:00;1.85;;;1.33;;
22829;SDS011;11581;51.250;6.778;2023-09-07T11:33:30;2.70;;;1.80;;
22829;SDS011;11581;51.250;6.778;2023-09-07T11:35:58;3.10;;;1.65;;
22829;SDS011;11581;51.250;6.778;2023-09-07T11:38:28;3.55;;;2.20;;
22829;SDS011;11581;51.250;6.778;2023-09-07T11:40:57;2.45;;;1.50;;
22829;SDS011;11581;51.250;6.778;2023-09-07T11:43:24;3.80;;;1.40;;
22829;SDS011;11581;51.250;6.778;2023-09-07T11:45:52;3.78;;;1.38;;
22829;SDS011;11581;51.250;6.778;2023-09-07T11:48:19;2.60;;;1.58;;
22829;SDS011;11581;51.250;6.778;2023-09-07T11:50:46;2.78;;;1.48;;
22829;SDS011;11581;51.250;6.778;2023-09-07T11:53:12;2.17;;;1.40;;
22829;SDS011;11581;51.250;6.778;2023-09-07T11:55:39;2.15;;;1.50;;
22829;SDS011;11581;51.250;6.778;2023-09-07T11:58:08;2.13;;;1.40;;
22829;SDS011;11581;51.250;6.778;2023-09-07T12:00:35;2.10;;;1.50;;
22829;SDS011;11581;51.250;6.778;2023-09-07T12:03:04;2.25;;;1.50;;
22829;SDS011;11581;51.250;6.778;2023-09-07T12:05:31;2.03;;;1.30;;
22829;SDS011;11581;51.250;6.778;2023-09-07T12:07:57;2.85;;;1.60;;
22829;SDS011;11581;51.250;6.778;2023-09-07T12:10:25;3.33;;;1.50;;
22829;SDS011;11581;51.250;6.778;2023-09-07T12:12:52;2.78;;;1.70;;
22829;SDS011;11581;51.250;6.778;2023-09-07T12:15:19;3.38;;;1.48;;
22829;SDS011;11581;51.250;6.778;2023-09-07T12:17:46;2.92;;;1.52;;
22829;SDS011;11581;51.250;6.778;2023-09-07T12:20:15;2.05;;;1.48;;
22829;SDS011;11581;51.250;6.778;2023-09-07T12:22:42;2.45;;;1.58;;
22829;SDS011;11581;51.250;6.778;2023-09-07T12:25:09;3.33;;;1.77;;
22829;SDS011;11581;51.250;6.778;2023-09-07T12:27:36;2.50;;;1.58;;
22829;SDS011;11581;51.250;6.778;2023-09-07T12:30:03;4.28;;;1.70;;
22829;SDS011;11581;51.250;6.778;2023-09-07T12:32:34;2.00;;;1.45;;
22829;SDS011;11581;51.250;6.778;2023-09-07T12:35:01;2.65;;;1.65;;
22829;SDS011;11581;51.250;6.778;2023-09-07T12:37:29;2.17;;;1.77;;
22829;SDS011;11581;51.250;6.778;2023-09-07T12:39:56;5.50;;;1.50;;
22829;SDS011;11581;51.250;6.778;2023-09-07T12:42:23;3.83;;;1.77;;
22829;SDS011;11581;51.250;6.778;2023-09-07T12:44:49;2.25;;;1.55;;
22829;SDS011;11581;51.250;6.778;2023-09-07T12:47:16;6.72;;;1.60;;
22829;SDS011;11581;51.250;6.778;2023-09-07T12:49:43;2.28;;;1.25;;
22829;SDS011;11581;51.250;6.778;2023-09-07T12:52:10;3.72;;;1.60;;
22829;SDS011;11581;51.250;6.778;2023-09-07T12:54:39;4.15;;;1.55;;
22829;SDS011;11581;51.250;6.778;2023-09-07T12:57:06;7.22;;;1.90;;
22829;SDS011;11581;51.250;6.778;2023-09-07T12:59:33;2.72;;;1.55;;
22829;SDS011;11581;51.250;6.778;2023-09-07T13:02:00;4.57;;;1.63;;
22829;SDS011;11581;51.250;6.778;2023-09-07T13:04:27;3.13;;;1.50;;
22829;SDS011;11581;51.250;6.778;2023-09-07T13:06:55;3.53;;;1.50;;
22829;SDS011;11581;51.250;6.778;2023-09-07T13:09:21;2.35;;;1.65;;
22829;SDS011;11581;51.250;6.778;2023-09-07T13:11:50;6.07;;;1.90;;
22829;SDS011;11581;51.250;6.778;2023-09-07T13:14:16;6.03;;;1.80;;
22829;SDS011;11581;51.250;6.778;2023-09-07T13:16:43;2.72;;;1.40;;
22829;SDS011;11581;51.250;6.778;2023-09-07T13:19:10;2.78;;;1.77;;
22829;SDS011;11581;51.250;6.778;2023-09-07T13:21:37;2.40;;;1.63;;
22829;SDS011;11581;51.250;6.778;2023-09-07T13:24:05;3.10;;;1.52;;
22829;SDS011;11581;51.250;6.778;2023-09-07T13:26:32;4.80;;;1.70;;
22829;SDS011;11581;51.250;6.778;2023-09-07T13:29:01;3.65;;;1.50;;
22829;SDS011;11581;51.250;6.778;2023-09-07T13:31:28;4.22;;;2.00;;
22829;SDS011;11581;51.250;6.778;2023-09-07T13:33:55;2.85;;;1.80;;
22829;SDS011;11581;51.250;6.778;2023-09-07T13:36:21;7.13;;;2.25;;
22829;SDS011;11581;51.250;6.778;2023-09-07T13:38:48;7.32;;;1.75;;
22829;SDS011;11581;51.250;6.778;2023-09-07T13:41:15;3.25;;;1.90;;
22829;SDS011;11581;51.250;6.778;2023-09-07T13:43:42;3.47;;;1.70;;
22829;SDS011;11581;51.250;6.778;2023-09-07T13:46:10;3.22;;;1.83;;
22829;SDS011;11581;51.250;6.778;2023-09-07T13:48:37;3.33;;;1.75;;
22829;SDS011;11581;51.250;6.778;2023-09-07T13:51:03;2.35;;;1.55;;
22829;SDS011;11581;51.250;6.778;2023-09-07T13:53:31;3.00;;;1.85;;
22829;SDS011;11581;51.250;6.778;2023-09-07T13:55:58;4.70;;;1.90;;
22829;SDS011;11581;51.250;6.778;2023-09-07T13:58:25;5.55;;;1.90;;
22829;SDS011;11581;51.250;6.778;2023-09-07T14:00:52;3.50;;;2.00;;
22829;SDS011;11581;51.250;6.778;2023-09-07T14:03:20;2.90;;;1.58;;
22829;SDS011;11581;51.250;6.778;2023-09-07T14:05:47;5.28;;;1.92;;
22829;SDS011;11581;51.250;6.778;2023-09-07T14:08:14;3.28;;;1.90;;
22829;SDS011;11581;51.250;6.778;2023-09-07T14:10:41;4.50;;;2.20;;
22829;SDS011;11581;51.250;6.778;2023-09-07T14:13:07;3.47;;;2.05;;
22829;SDS011;11581;51.250;6.778;2023-09-07T14:15:34;2.85;;;1.90;;
22829;SDS011;11581;51.250;6.778;2023-09-07T14:18:02;5.93;;;1.92;;
22829;SDS011;11581;51.250;6.778;2023-09-07T14:20:30;2.55;;;1.65;;
22829;SDS011;11581;51.250;6.778;2023-09-07T14:22:57;3.53;;;2.08;;
22829;SDS011;11581;51.250;6.778;2023-09-07T14:25:25;4.97;;;1.77;;
22829;SDS011;11581;51.250;6.778;2023-09-07T14:27:53;2.08;;;1.55;;
22829;SDS011;11581;51.250;6.778;2023-09-07T14:30:20;5.47;;;1.88;;
22829;SDS011;11581;51.250;6.778;2023-09-07T14:32:47;3.00;;;1.95;;
22829;SDS011;11581;51.250;6.778;2023-09-07T14:35:15;3.53;;;1.90;;
22829;SDS011;11581;51.250;6.778;2023-09-07T14:37:43;5.38;;;1.95;;
22829;SDS011;11581;51.250;6.778;2023-09-07T14:40:10;3.17;;;1.67;;
22829;SDS011;11581;51.250;6.778;2023-09-07T14:42:38;2.65;;;1.73;;
22829;SDS011;11581;51.250;6.778;2023-09-07T14:45:06;3.95;;;2.28;;
22829;SDS011;11581;51.250;6.778;2023-09-07T14:47:33;2.47;;;1.45;;
22829;SDS011;11581;51.250;6.778;2023-09-07T14:50:00;3.42;;;1.90;;
22829;SDS011;11581;51.250;6.778;2023-09-07T14:52:28;3.15;;;1.63;;
22829;SDS011;11581;51.250;6.778;2023-09-07T14:55:00;3.33;;;2.00;;
22829;SDS011;11581;51.250;6.778;2023-09-07T14:57:29;3.72;;;1.80;;
22829;SDS011;11581;51.250;6.778;2023-09-07T14:59:56;2.95;;;1.60;;
22829;SDS011;11581;51.250;6.778;2023-09-07T15:02:22;5.38;;;1.85;;
22829;SDS011;11581;51.250;6.778;2023-09-07T15:04:49;3.28;;;1.60;;
22829;SDS011;11581;51.250;6.778;2023-09-07T15:07:16;2.40;;;1.65;;